Time;durP1;ratioP1;P1;durP2;ratioP2;P2;SDS_P1;SDS_P2;PMS_P1;PMS_P2;Temp;Humidity;BMP_temperature;BMP_pressure;BME280_temperature;BME280_humidity;BME280_pressure;Samples;Min_cycle;Max_cycle;Signal;HPM_P1;HPM_P2
2022/01/15 00:01:05;;;;;;;43.35;21.67;;;1.60;99.90;;;;;;5027206;28;20494;-83
2022/01/15 00:03:32;;;;;;;41.60;21.67;;;;;;;;;;5026986;28;20029;-83
2022/01/15 00:05:58;;;;;;;40.38;21.80;;;1.60;99.90;;;;;;5025604;28;20033;-83
2022/01/15 00:08:24;;;;;;;41.33;20.83;;;;;;;;;;5028360;28;20026;-84
2022/01/15 00:10:51;;;;;;;47.63;21.52;;;1.60;99.90;;;;;;5028617;28;20021;-84
2022/01/15 00:13:29;;;;;;;41.13;21.38;;;1.00;99.90;;;;;;5026465;28;20022;-82
2022/01/15 00:16:09;;;;;;;37.17;19.02;;;;;;;;;;5017380;28;20421;-85
2022/01/15 00:18:48;;;;;;;38.33;18.83;;;;;;;;;;5026965;28;20030;-83
2022/01/15 00:21:15;;;;;;;38.70;18.67;;;1.60;99.90;;;;;;5027270;28;20086;-84
2022/01/15 00:23:43;;;;;;;37.03;19.13;;;;;;;;;;5025517;28;20051;-82
2022/01/15 00:26:09;;;;;;;40.70;20.58;;;;;;;;;;5036153;28;20141;-84
2022/01/15 00:28:35;;;;;;;37.50;17.20;;;;;;;;;;5022858;28;20403;-82
2022/01/15 00:31:01;;;;;;;36.95;18.70;;;;;;;;;;5023173;28;20046;-84
2022/01/15 00:33:29;;;;;;;38.28;18.85;;;1.60;99.90;;;;;;5022958;28;20026;-85
2022/01/15 00:35:56;;;;;;;35.08;17.35;;;;;;;;;;5023327;28;20034;-83
2022/01/15 00:38:22;;;;;;;35.90;17.70;;;;;;;;;;5057992;28;20034;-82
2022/01/15 00:40:48;;;;;;;36.38;18.10;;;;;;;;;;5045325;28;20468;-81
2022/01/15 00:43:18;;;;;;;33.97;17.08;;;1.60;99.90;;;;;;5036303;28;20395;-85
2022/01/15 00:45:44;;;;;;;34.93;17.33;;;;;;;;;;5026669;28;20072;-83
2022/01/15 00:48:10;;;;;;;35.42;17.33;;;1.60;99.90;;;;;;5026288;28;20267;-84
2022/01/15 00:50:35;;;;;;;31.67;15.88;;;4.10;99.90;;;;;;5026991;28;20061;-86
2022/01/15 00:53:01;;;;;;;32.10;16.38;;;3.50;99.90;;;;;;5025376;28;20030;-85
2022/01/15 00:55:27;;;;;;;29.17;15.13;;;1.60;99.90;;;;;;5025890;28;20030;-82
2022/01/15 00:57:53;;;;;;;31.17;15.02;;;2.90;99.90;;;;;;5031409;28;20021;-85
2022/01/15 01:00:22;;;;;;;28.73;14.70;;;1.80;99.90;;;;;;5027999;28;20030;-84
2022/01/15 01:02:48;;;;;;;31.58;15.07;;;;;;;;;;5028464;28;20022;-83
2022/01/15 01:05:15;;;;;;;28.55;14.57;;;1.60;99.90;;;;;;5032395;28;20037;-86
2022/01/15 01:07:42;;;;;;;28.00;13.70;;;;;;;;;;5032607;28;20054;-84
2022/01/15 01:21:20;;;;;;;30.17;15.35;;;;;;;;;;5027559;28;20032;-84
2022/01/15 01:23:46;;;;;;;34.15;15.30;;;1.50;99.90;;;;;;5033930;28;20139;-85
2022/01/15 01:26:30;;;;;;;36.00;16.95;;;4.60;99.90;;;;;;5043720;28;20089;-87
2022/01/15 01:29:14;;;;;;;37.10;17.73;;;;;;;;;;5023629;28;20029;-84
2022/01/15 01:31:54;;;;;;;39.15;19.10;;;;;;;;;;5024872;28;20032;-81
2022/01/15 01:34:21;;;;;;;33.77;16.83;;;;;;;;;;5023830;28;20022;-83
2022/01/15 01:36:52;;;;;;;35.33;17.98;;;;;;;;;;5024371;28;20033;-83
2022/01/15 01:39:21;;;;;;;36.03;17.88;;;1.50;99.90;;;;;;5024772;28;20466;-83
2022/01/15 01:42:08;;;;;;;37.85;19.50;;;;;;;;;;5025255;28;20034;-83
2022/01/15 01:44:41;;;;;;;35.20;18.67;;;;;;;;;;5024934;28;20026;-85
2022/01/15 01:47:19;;;;;;;28.25;15.23;;;1.50;99.90;;;;;;5025405;28;20025;-83
2022/01/15 01:49:45;;;;;;;32.63;16.38;;;;;;;;;;5025547;28;20049;-83
2022/01/15 01:52:11;;;;;;;33.42;18.13;;;;;;;;;;5027652;28;20030;-82
2022/01/15 01:54:37;;;;;;;24.67;13.88;;;1.60;99.90;;;;;;5029664;28;20033;-83
2022/01/15 01:57:03;;;;;;;20.90;11.05;;;1.60;99.90;;;;;;5048340;28;20421;-84
2022/01/15 01:59:30;;;;;;;21.88;12.30;;;;;;;;;;5047427;28;20096;-84
2022/01/15 02:01:57;;;;;;;22.98;12.68;;;;;;;;;;5036852;28;20026;-84
2022/01/15 02:04:23;;;;;;;26.90;12.45;;;;;;;;;;5026469;28;20040;-87
2022/01/15 02:06:49;;;;;;;33.05;16.17;;;1.70;99.90;;;;;;5027316;28;20121;-84
2022/01/15 02:09:16;;;;;;;22.02;11.43;;;;;;;;;;5027620;28;20036;-86
2022/01/15 02:11:43;;;;;;;27.63;14.73;;;;;;;;;;5042138;28;20025;-85
2022/01/15 02:14:09;;;;;;;25.10;12.55;;;1.70;99.90;;;;;;5037469;28;20021;-85
2022/01/15 02:16:34;;;;;;;21.23;10.45;;;1.90;99.90;;;;;;5026923;28;20098;-87
2022/01/15 02:19:00;;;;;;;21.52;10.23;;;3.40;99.90;;;;;;5025169;28;20038;-85
2022/01/15 02:24:11;;;;;;;18.58;9.45;;;1.80;99.90;;;;;;5027109;28;20060;-84
2022/01/15 02:26:39;;;;;;;17.83;8.68;;;;;;;;;;5026924;28;20049;-82
2022/01/15 02:29:05;;;;;;;17.92;9.90;;;;;;;;;;5025823;28;20112;-83
2022/01/15 02:31:32;;;;;;;17.77;9.35;;;;;;;;;;5025799;28;20030;-84
2022/01/15 02:34:00;;;;;;;16.13;8.48;;;2.00;99.90;;;;;;5025841;28;20033;-84
2022/01/15 02:36:31;;;;;;;13.73;8.05;;;1.90;99.90;;;;;;5062122;28;20491;-84
2022/01/15 02:38:58;;;;;;;16.80;8.75;;;;;;;;;;5036726;28;20048;-83
2022/01/15 02:41:35;;;;;;;14.80;8.20;;;1.90;99.90;;;;;;5025409;28;20026;-81
2022/01/15 02:44:03;;;;;;;15.68;8.10;;;1.90;99.90;;;;;;5026322;28;20061;-82
2022/01/15 02:49:00;;;;;;;12.98;7.10;;;1.90;99.90;;;;;;5006782;28;20040;-84
2022/01/15 02:51:32;;;;;;;16.10;8.40;;;1.80;99.90;;;;;;5020490;28;20037;-83
2022/01/15 02:53:58;;;;;;;12.93;7.50;;;;;;;;;;5020298;28;20035;-84
2022/01/15 02:56:34;;;;;;;16.25;8.70;;;1.90;99.90;;;;;;5004050;28;20041;-84
2022/01/15 02:59:02;;;;;;;13.18;7.55;;;;;;;;;;5019056;28;20032;-86
2022/01/15 03:01:29;;;;;;;14.65;7.20;;;;;;;;;;5022395;28;20034;-87
2022/01/15 03:03:54;;;;;;;14.40;8.40;;;1.90;99.90;;;;;;5010869;28;20039;-85
2022/01/15 03:06:21;;;;;;;14.63;8.23;;;1.90;99.90;;;;;;5026428;28;20128;-84
2022/01/15 03:08:49;;;;;;;16.23;8.45;;;1.80;99.90;;;;;;5035239;28;20033;-82
2022/01/15 03:11:15;;;;;;;12.80;7.82;;;;;;;;;;5023554;28;20022;-86
2022/01/15 03:13:43;;;;;;;12.63;7.60;;;1.80;99.90;;;;;;5023809;28;20125;-82
2022/01/15 03:16:12;;;;;;;14.27;7.60;;;4.30;99.90;;;;;;5024594;28;20094;-85
2022/01/15 03:18:39;;;;;;;12.65;7.50;;;;;;;;;;5023963;28;20022;-84
2022/01/15 03:21:05;;;;;;;12.38;6.90;;;;;;;;;;5023782;28;20034;-82
2022/01/15 03:23:31;;;;;;;13.05;7.55;;;;;;;;;;5022200;28;20115;-84
2022/01/15 03:25:59;;;;;;;12.88;6.90;;;1.60;99.90;;;;;;5032074;23;20053;-86
2022/01/15 03:28:28;;;;;;;14.55;7.78;;;1.60;99.90;;;;;;5061204;28;20068;-86
2022/01/15 03:30:57;;;;;;;13.35;7.28;;;1.70;99.90;;;;;;5043951;28;20022;-84
2022/01/15 03:33:42;;;;;;;13.13;7.40;;;1.70;99.90;;;;;;5036780;28;20093;-84
2022/01/15 03:36:11;;;;;;;15.32;7.70;;;1.60;99.90;;;;;;5020458;28;20030;-87
2022/01/15 03:38:40;;;;;;;12.50;7.60;;;1.60;99.90;;;;;;5015165;28;20089;-86
2022/01/15 03:41:08;;;;;;;14.25;8.48;;;1.50;99.90;;;;;;5011112;28;20034;-85
2022/01/15 03:43:38;;;;;;;15.63;8.50;;;1.40;99.90;;;;;;5011380;28;20073;-85
2022/01/15 03:46:06;;;;;;;13.70;7.72;;;1.40;99.90;;;;;;5020047;28;20026;-85
2022/01/15 03:48:33;;;;;;;14.50;8.85;;;1.20;99.90;;;;;;5020699;28;20030;-87
2022/01/15 03:51:03;;;;;;;16.95;8.23;;;1.40;99.90;;;;;;5021664;28;20052;-85
2022/01/15 03:53:35;;;;;;;14.77;8.02;;;1.30;99.90;;;;;;5022971;28;20026;-85
2022/01/15 03:56:29;;;;;;;15.45;9.02;;;1.30;99.90;;;;;;5018831;28;20037;-84
2022/01/15 03:59:02;;;;;;;;;;;1.30;99.90;;;;;;5021221;28;20026;-85
2022/01/15 04:01:42;;;;;;;18.00;8.95;;;1.20;99.90;;;;;;4989031;28;19920;-83
2022/01/15 04:04:34;;;;;;;15.82;9.20;;;1.20;99.90;;;;;;5008378;28;20033;-82
2022/01/15 04:07:09;;;;;;;18.10;10.43;;;1.10;99.90;;;;;;5012695;28;20014;-83
2022/01/15 04:09:34;;;;;;;15.68;8.57;;;-1.10;99.90;;;;;;5041090;28;20056;-84
2022/01/15 04:12:00;;;;;;;15.10;9.00;;;2.40;99.90;;;;;;5021641;28;20022;-82
2022/01/15 04:14:26;;;;;;;19.02;10.27;;;0.90;99.90;;;;;;5020462;28;20036;-83
2022/01/15 04:16:51;;;;;;;17.90;9.50;;;0.90;99.90;;;;;;5018412;28;20040;-83
2022/01/15 04:19:17;;;;;;;18.80;8.85;;;2.50;99.90;;;;;;5021506;28;20057;-85
2022/01/15 04:21:43;;;;;;;15.20;8.60;;;1.20;99.90;;;;;;5020732;28;20215;-81
2022/01/15 04:24:09;;;;;;;16.63;9.43;;;-0.10;99.90;;;;;;5020165;28;20422;-80
2022/01/15 04:26:34;;;;;;;17.92;8.95;;;2.70;99.90;;;;;;5020624;28;20211;-82
2022/01/15 04:29:04;;;;;;;16.48;9.63;;;0.70;99.90;;;;;;5023483;28;20045;-85
2022/01/15 04:31:47;;;;;;;16.23;8.10;;;3.80;99.90;;;;;;5025548;28;20084;-81
2022/01/15 04:34:22;;;;;;;16.20;9.02;;;1.30;99.90;;;;;;5025043;28;20029;-83
2022/01/15 04:36:49;;;;;;;17.42;8.73;;;3.20;99.90;;;;;;5018783;28;20471;-83
2022/01/15 04:39:16;;;;;;;14.07;7.35;;;;;;;;;;5022208;28;20041;-83
2022/01/15 04:41:42;;;;;;;11.88;6.88;;;;;;;;;;5023359;28;20029;-83
2022/01/15 04:44:08;;;;;;;18.00;8.55;;;1.20;99.90;;;;;;5025433;28;20060;-84
2022/01/15 04:46:34;;;;;;;17.00;9.13;;;;;;;;;;5024003;28;20034;-82
2022/01/15 04:49:00;;;;;;;13.80;7.35;;;1.00;99.90;;;;;;5012436;28;20034;-82
2022/01/15 04:51:27;;;;;;;43.75;16.08;;;1.60;99.90;;;;;;5022538;28;20037;-84
2022/01/15 04:53:53;;;;;;;22.55;10.73;;;;;;;;;;5009730;28;20126;-82
2022/01/15 04:56:25;;;;;;;20.88;9.57;;;0.80;99.90;;;;;;5025392;28;20033;-88
2022/01/15 04:58:51;;;;;;;14.27;7.90;;;;;;;;;;5026973;28;20032;-84
2022/01/15 05:01:17;;;;;;;17.33;8.10;;;0.70;99.90;;;;;;5036683;28;20298;-84
2022/01/15 05:03:43;;;;;;;17.88;8.20;;;;;;;;;;5023931;28;20037;-86
2022/01/15 05:06:10;;;;;;;15.13;8.07;;;;;;;;;;5024187;28;20122;-83
2022/01/15 05:08:35;;;;;;;13.65;7.53;;;0.70;99.90;;;;;;5039596;28;20069;-84
2022/01/15 05:11:11;;;;;;;14.65;7.68;;;0.80;99.90;;;;;;5023743;28;20193;-82
2022/01/15 05:13:39;;;;;;;16.10;8.45;;;;;;;;;;5023315;28;20042;-85
2022/01/15 05:16:05;;;;;;;15.77;9.18;;;0.60;99.90;;;;;;5023628;28;20041;-84
2022/01/15 05:18:33;;;;;;;14.35;7.65;;;0.70;99.90;;;;;;5021847;28;20026;-83
2022/01/15 05:20:59;;;;;;;17.95;8.50;;;2.70;99.90;;;;;;5019289;28;20034;-82
2022/01/15 05:23:28;;;;;;;15.13;8.43;;;1.00;99.90;;;;;;5022340;28;20032;-84
2022/01/15 05:25:54;;;;;;;14.63;8.38;;;0.60;99.90;;;;;;5021743;28;20049;-82
2022/01/15 05:28:19;;;;;;;16.77;8.43;;;0.80;99.90;;;;;;5035758;28;20026;-83
2022/01/15 05:30:45;;;;;;;15.80;7.90;;;3.10;99.90;;;;;;5020196;28;20026;-84
2022/01/15 05:33:11;;;;;;;16.38;8.93;;;0.80;99.90;;;;;;5037003;28;20038;-84
2022/01/15 05:35:36;;;;;;;16.88;8.35;;;1.60;99.90;;;;;;5028209;28;20023;-81
2022/01/15 05:38:02;;;;;;;20.88;9.40;;;0.70;99.90;;;;;;5022039;28;20231;-83
2022/01/15 05:40:28;;;;;;;16.52;9.02;;;2.30;99.90;;;;;;5034883;28;20491;-84
2022/01/15 05:42:54;;;;;;;15.85;8.27;;;0.70;99.90;;;;;;5032343;28;20121;-84
2022/01/15 05:45:24;;;;;;;15.82;8.55;;;0.80;99.90;;;;;;5006336;28;20094;-82
2022/01/15 05:47:50;;;;;;;17.38;8.32;;;0.50;99.90;;;;;;5023297;28;20079;-84
2022/01/15 05:50:17;;;;;;;18.58;9.27;;;0.80;99.90;;;;;;5015151;28;20294;-84
2022/01/15 05:52:42;;;;;;;18.05;8.98;;;0.80;99.90;;;;;;5042407;28;20032;-85
2022/01/15 05:55:08;;;;;;;17.23;8.80;;;0.80;99.90;;;;;;5036664;28;20025;-84
2022/01/15 05:57:34;;;;;;;18.20;9.23;;;0.80;99.90;;;;;;5004210;28;20326;-82
2022/01/15 06:00:00;;;;;;;19.77;9.60;;;0.80;99.90;;;;;;5025477;28;20116;-86
2022/01/15 06:02:26;;;;;;;15.25;8.05;;;3.40;99.90;;;;;;5021234;28;20045;-87
2022/01/15 06:04:52;;;;;;;16.13;8.77;;;2.80;99.90;;;;;;5004858;28;20029;-83
2022/01/15 06:07:18;;;;;;;16.42;9.07;;;0.80;99.90;;;;;;5020665;28;20536;-84
2022/01/15 06:09:43;;;;;;;19.15;9.32;;;0.80;99.90;;;;;;5021465;28;20390;-81
2022/01/15 06:12:10;;;;;;;15.32;8.13;;;1.00;99.90;;;;;;5019564;28;20033;-83
2022/01/15 06:14:36;;;;;;;19.42;9.45;;;1.00;99.90;;;;;;5001948;28;20030;-84
2022/01/15 06:17:03;;;;;;;16.27;8.07;;;;;;;;;;5008645;28;20030;-82
2022/01/15 06:19:29;;;;;;;14.07;7.82;;;1.00;99.90;;;;;;5020994;28;20068;-84
2022/01/15 06:21:55;;;;;;;17.65;8.85;;;1.00;99.90;;;;;;5021606;28;20045;-85
2022/01/15 06:24:20;;;;;;;18.65;9.18;;;1.00;99.90;;;;;;5021867;28;20260;-83
2022/01/15 06:26:46;;;;;;;14.48;8.02;;;1.00;99.90;;;;;;5021065;28;20041;-83
2022/01/15 06:29:12;;;;;;;20.25;9.32;;;0.90;99.90;;;;;;5022147;28;20049;-81
2022/01/15 06:31:38;;;;;;;17.05;9.00;;;2.00;99.90;;;;;;5021777;28;20026;-82
2022/01/15 06:34:04;;;;;;;15.80;9.27;;;1.60;99.90;;;;;;5023005;28;20037;-83
2022/01/15 06:36:29;;;;;;;16.73;8.73;;;3.20;99.90;;;;;;5021054;28;20197;-83
2022/01/15 06:38:58;;;;;;;16.38;8.77;;;0.30;99.90;;;;;;5034417;28;20026;-86
2022/01/15 06:41:24;;;;;;;18.25;8.98;;;1.00;99.90;;;;;;5020820;28;20037;-84
2022/01/15 06:43:49;;;;;;;19.02;8.75;;;1.00;99.90;;;;;;5021912;28;20033;-85
2022/01/15 06:46:15;;;;;;;15.52;8.32;;;3.50;99.90;;;;;;5024535;28;20141;-83
2022/01/15 06:48:41;;;;;;;18.55;8.40;;;2.40;99.90;;;;;;5026416;28;20056;-83
2022/01/15 06:51:06;;;;;;;18.67;9.07;;;0.40;99.90;;;;;;5023517;28;20033;-85
2022/01/15 06:53:32;;;;;;;16.35;8.75;;;0.90;99.90;;;;;;5022666;28;20033;-83
2022/01/15 06:55:58;;;;;;;17.30;9.32;;;1.20;99.90;;;;;;5020661;28;20036;-83
2022/01/15 06:58:24;;;;;;;16.95;8.88;;;1.10;99.90;;;;;;5019929;28;20514;-81
2022/01/15 07:00:50;;;;;;;19.75;9.90;;;1.10;99.90;;;;;;5019713;28;20037;-84
2022/01/15 07:03:16;;;;;;;17.98;8.38;;;1.10;99.90;;;;;;5024973;28;20038;-84
2022/01/15 07:05:42;;;;;;;18.02;9.23;;;-0.60;99.90;;;;;;5019140;28;20466;-82
2022/01/15 07:08:09;;;;;;;22.20;10.52;;;3.30;99.90;;;;;;5029899;28;20085;-83
2022/01/15 07:10:41;;;;;;;18.88;10.18;;;1.60;99.90;;;;;;5022046;28;20022;-84
2022/01/15 07:13:10;;;;;;;20.33;10.35;;;2.20;99.90;;;;;;5021860;28;20108;-85
2022/01/15 07:15:36;;;;;;;18.38;9.55;;;1.40;99.90;;;;;;5021868;28;20038;-85
2022/01/15 07:18:05;;;;;;;19.55;9.63;;;1.00;99.90;;;;;;5036337;28;20026;-86
2022/01/15 07:20:31;;;;;;;19.17;10.10;;;0.90;99.90;;;;;;5031315;28;20030;-82
2022/01/15 07:22:57;;;;;;;20.08;9.85;;;2.70;99.90;;;;;;5022060;28;20097;-84
2022/01/15 07:25:22;;;;;;;20.98;9.95;;;3.40;99.90;;;;;;5043175;28;20037;-83
2022/01/15 07:27:48;;;;;;;21.35;10.10;;;1.00;99.90;;;;;;5027214;28;20061;-83
2022/01/15 07:30:15;;;;;;;21.40;10.90;;;3.60;99.90;;;;;;5044407;28;20577;-84
2022/01/15 07:32:42;;;;;;;18.77;9.40;;;0.90;99.90;;;;;;5042175;28;20711;-84
2022/01/15 07:35:10;;;;;;;17.77;10.10;;;1.70;99.90;;;;;;5011615;28;20034;-81
2022/01/15 07:37:36;;;;;;;17.45;9.40;;;1.00;99.90;;;;;;5021115;28;20062;-81
2022/01/15 07:40:04;;;;;;;16.33;8.48;;;1.00;99.90;;;;;;5024473;28;20033;-85
2022/01/15 07:42:40;;;;;;;16.92;9.10;;;1.30;99.90;;;;;;5025829;28;20034;-86
2022/01/15 07:45:12;;;;;;;16.50;8.43;;;2.10;99.90;;;;;;5041685;28;20029;-83
2022/01/15 07:47:40;;;;;;;16.08;8.82;;;1.20;99.90;;;;;;5006330;28;20022;-85
2022/01/15 07:50:09;;;;;;;16.85;8.40;;;1.20;99.90;;;;;;5022507;28;20023;-86
2022/01/15 07:52:35;;;;;;;15.05;7.78;;;;;;;;;;5027288;28;20033;-82
2022/01/15 07:55:01;;;;;;;20.20;9.50;;;;;;;;;;5042691;28;20221;-84
2022/01/15 07:57:28;;;;;;;19.63;10.25;;;;;;;;;;5027135;28;20022;-85
2022/01/15 07:59:54;;;;;;;20.88;10.07;;;;;;;;;;5027402;28;20080;-85
2022/01/15 08:02:19;;;;;;;20.55;9.63;;;1.20;99.90;;;;;;5028152;28;20466;-83
2022/01/15 08:04:45;;;;;;;18.08;9.45;;;;;;;;;;5027620;28;20040;-87
2022/01/15 08:07:11;;;;;;;17.83;9.65;;;1.20;99.90;;;;;;5042178;28;20022;-85
2022/01/15 08:09:37;;;;;;;18.60;9.35;;;2.00;99.90;;;;;;5008366;28;20030;-85
2022/01/15 08:12:04;;;;;;;20.73;9.15;;;0.70;99.90;;;;;;5036480;28;20033;-82
2022/01/15 08:14:30;;;;;;;21.63;9.82;;;;;;;;;;5026484;28;20030;-83
2022/01/15 08:17:03;;;;;;;18.55;9.43;;;1.20;99.90;;;;;;5025620;28;20026;-84
2022/01/15 08:19:29;;;;;;;18.27;9.40;;;;;;;;;;5027350;28;20025;-83
2022/01/15 08:21:55;;;;;;;18.90;8.32;;;1.20;99.90;;;;;;5025249;28;20041;-82
2022/01/15 08:24:21;;;;;;;17.20;9.20;;;1.20;99.90;;;;;;5024875;28;20026;-82
2022/01/15 08:26:53;;;;;;;18.52;9.98;;;1.10;99.90;;;;;;5024279;28;20048;-86
2022/01/15 08:29:19;;;;;;;17.00;8.40;;;;;;;;;;5027172;28;20037;-86
2022/01/15 08:31:45;;;;;;;19.58;8.75;;;1.00;99.90;;;;;;5026553;28;20065;-82
2022/01/15 08:34:11;;;;;;;20.52;9.75;;;1.10;99.90;;;;;;5033488;28;20030;-84
2022/01/15 08:36:37;;;;;;;21.00;10.23;;;1.10;99.90;;;;;;5049463;28;20038;-85
2022/01/15 08:39:08;;;;;;;23.20;10.35;;;1.20;99.90;;;;;;5031140;28;20086;-86
2022/01/15 08:41:34;;;;;;;20.20;9.93;;;;;;;;;;5032954;28;20378;-86
2022/01/15 08:44:00;;;;;;;19.25;10.10;;;;;;;;;;5029253;28;20054;-83
2022/01/15 08:46:26;;;;;;;20.40;9.82;;;1.00;99.90;;;;;;5044657;28;20040;-83
2022/01/15 08:48:52;;;;;;;24.20;10.15;;;1.30;99.90;;;;;;5045359;28;20121;-84
2022/01/15 08:51:22;;;;;;;17.67;9.35;;;3.10;99.90;;;;;;5026533;28;20021;-84
2022/01/15 08:53:48;;;;;;;20.65;10.38;;;;;;;;;;5031043;28;20030;-85
2022/01/15 08:56:14;;;;;;;20.52;10.50;;;;;;;;;;5023979;28;20099;-84
2022/01/15 08:58:40;;;;;;;16.30;8.95;;;;;;;;;;5037387;28;20068;-83
2022/01/15 09:01:13;;;;;;;19.13;10.00;;;;;;;;;;5026603;28;20030;-86
2022/01/15 09:03:40;;;;;;;21.73;10.48;;;1.50;99.90;;;;;;5035720;28;20039;-82
2022/01/15 09:06:12;;;;;;;16.88;8.90;;;1.60;99.90;;;;;;5027253;28;20026;-86
2022/01/15 09:08:39;;;;;;;19.17;9.70;;;;;;;;;;5027870;28;20034;-84
2022/01/15 09:11:06;;;;;;;19.13;9.98;;;;;;;;;;5027682;28;20096;-82
2022/01/15 09:13:35;;;;;;;18.67;9.45;;;1.50;99.90;;;;;;5025979;28;20032;-84
2022/01/15 09:16:02;;;;;;;19.25;9.57;;;3.60;99.90;;;;;;5017329;28;20088;-88
2022/01/15 09:18:29;;;;;;;17.35;8.40;;;;;;;;;;5027282;28;20049;-83
2022/01/15 09:20:55;;;;;;;18.83;9.73;;;;;;;;;;5030092;28;20053;-83
2022/01/15 09:23:21;;;;;;;15.65;8.93;;;;;;;;;;5024498;28;20021;-84
2022/01/15 09:25:49;;;;;;;16.65;8.52;;;2.00;99.90;;;;;;5042612;28;20539;-85
2022/01/15 09:31:00;;;;;;;16.45;8.68;;;;;;;;;;5027282;28;20061;-85
2022/01/15 09:33:26;;;;;;;16.73;9.10;;;;;;;;;;5025044;28;20026;-84
2022/01/15 09:35:52;;;;;;;17.40;9.23;;;;;;;;;;5043215;28;20386;-88
2022/01/15 09:38:18;;;;;;;16.02;8.93;;;;;;;;;;5041167;28;20033;-84
2022/01/15 09:40:45;;;;;;;18.48;8.80;;;2.30;99.90;;;;;;5035997;28;20098;-81
2022/01/15 09:43:12;;;;;;;14.55;7.80;;;;;;;;;;5024522;28;20026;-83
2022/01/15 09:45:39;;;;;;;16.92;8.38;;;;;;;;;;5034882;28;20140;-82
2022/01/15 09:48:08;;;;;;;17.30;8.73;;;2.20;99.90;;;;;;5045236;28;20033;-81
2022/01/15 09:50:42;;;;;;;15.90;8.40;;;2.20;99.90;;;;;;5037483;28;20037;-84
2022/01/15 09:53:10;;;;;;;13.90;8.15;;;;;;;;;;5039713;28;20026;-83
2022/01/15 09:55:36;;;;;;;15.48;8.77;;;2.40;99.90;;;;;;5040182;28;20041;-86
2022/01/15 09:58:03;;;;;;;14.23;7.55;;;4.00;99.90;;;;;;5022405;28;20026;-84
2022/01/15 10:00:30;;;;;;;17.10;8.90;;;4.70;99.90;;;;;;5023563;28;20081;-85
2022/01/15 10:02:57;;;;;;;15.63;7.93;;;2.50;99.90;;;;;;5023597;28;20041;-84
2022/01/15 10:05:23;;;;;;;16.45;8.25;;;2.60;99.90;;;;;;5027598;28;20093;-85
2022/01/15 10:08:01;;;;;;;15.45;8.18;;;2.40;99.90;;;;;;5022954;28;20030;-84
2022/01/15 10:10:31;;;;;;;15.05;7.93;;;2.40;99.90;;;;;;5025292;28;20034;-85
2022/01/15 10:13:14;;;;;;;17.25;8.73;;;2.50;99.90;;;;;;5040793;28;20101;-83
2022/01/15 10:15:41;;;;;;;14.18;7.45;;;2.50;99.90;;;;;;5025071;28;20049;-83
2022/01/15 10:18:22;;;;;;;13.20;7.55;;;4.70;99.90;;;;;;5028370;28;20090;-82
2022/01/15 10:20:47;;;;;;;;;;;4.70;99.90;;;;;;5043786;28;20062;-82
2022/01/15 10:23:18;;;;;;;13.45;7.30;;;3.40;99.90;;;;;;5025300;28;19909;-84
2022/01/15 10:25:44;;;;;;;;;;;2.10;99.90;;;;;;5022288;28;20044;-84
2022/01/15 10:28:10;;;;;;;14.98;7.45;;;2.60;99.90;;;;;;5030724;28;19917;-84
2022/01/15 10:30:36;;;;;;;15.45;8.90;;;4.40;99.90;;;;;;5022416;28;20030;-83
2022/01/15 10:33:05;;;;;;;15.60;7.53;;;2.50;99.90;;;;;;5023846;28;20033;-85
2022/01/15 10:35:37;;;;;;;16.05;8.70;;;2.60;99.90;;;;;;5021797;28;20022;-82
2022/01/15 10:38:07;;;;;;;16.23;7.82;;;2.70;99.90;;;;;;5023816;28;20206;-83
2022/01/15 10:40:42;;;;;;;14.98;7.80;;;2.70;99.90;;;;;;5026664;28;20017;-87
2022/01/15 10:43:10;;;;;;;17.45;8.85;;;2.70;99.90;;;;;;5038020;28;20453;-85
2022/01/15 10:45:50;;;;;;;13.73;6.95;;;5.00;99.90;;;;;;5002758;28;20102;-87
2022/01/15 10:48:21;;;;;;;14.67;8.40;;;2.80;99.90;;;;;;5017584;28;20101;-84
2022/01/15 10:50:58;;;;;;;17.27;9.48;;;2.80;99.90;;;;;;5017547;28;20316;-82
2022/01/15 10:53:42;;;;;;;16.10;7.47;;;3.00;99.90;;;;;;5009528;28;20053;-85
2022/01/15 10:56:10;;;;;;;13.10;7.18;;;3.00;99.90;;;;;;5019545;28;20072;-83
2022/01/15 10:58:37;;;;;;;12.95;7.63;;;3.10;99.90;;;;;;5012635;28;20186;-80
2022/01/15 11:01:04;;;;;;;14.90;8.25;;;3.10;99.90;;;;;;5028154;28;20399;-84
2022/01/15 11:03:38;;;;;;;13.55;7.53;;;3.10;99.90;;;;;;5017879;28;20056;-81
2022/01/15 11:06:05;;;;;;;15.48;8.20;;;3.20;99.90;;;;;;4998349;28;20023;-82
2022/01/15 11:08:35;;;;;;;15.20;8.80;;;3.40;99.90;;;;;;4999152;28;20125;-85
2022/01/15 11:11:14;;;;;;;15.27;7.97;;;3.00;99.90;;;;;;5012163;28;20033;-84
2022/01/15 11:13:46;;;;;;;15.25;8.48;;;3.10;99.90;;;;;;5034196;28;20287;-91
2022/01/15 11:16:15;;;;;;;14.77;8.15;;;3.10;99.90;;;;;;5014420;28;20088;-81
2022/01/15 11:18:43;;;;;;;13.57;8.15;;;3.20;99.90;;;;;;5021176;28;20022;-80
2022/01/15 11:21:11;;;;;;;15.70;8.35;;;3.20;99.90;;;;;;5038402;28;20022;-83
2022/01/15 11:23:40;;;;;;;14.63;8.20;;;3.20;99.90;;;;;;5021111;28;20049;-82
2022/01/15 11:26:08;;;;;;;15.05;8.38;;;3.60;99.90;;;;;;5020952;28;20065;-84
2022/01/15 11:28:34;;;;;;;15.63;7.50;;;3.50;99.90;;;;;;5019897;28;20498;-85
2022/01/15 11:31:06;;;;;;;16.60;8.50;;;3.50;99.90;;;;;;5024471;28;20049;-86
2022/01/15 11:33:34;;;;;;;18.08;9.43;;;3.50;99.90;;;;;;5015039;28;20030;-84
2022/01/15 11:36:02;;;;;;;15.30;8.15;;;3.50;99.90;;;;;;5017423;28;20030;-85
2022/01/15 11:38:41;;;;;;;14.57;8.48;;;3.40;99.90;;;;;;5009917;28;20030;-80
2022/01/15 11:41:27;;;;;;;12.93;7.43;;;3.30;99.90;;;;;;5016942;28;20125;-81
2022/01/15 11:43:53;;;;;;;13.32;7.72;;;3.40;99.90;;;;;;5034128;28;20026;-83
2022/01/15 11:46:22;;;;;;;19.00;9.15;;;3.50;99.90;;;;;;5013453;28;20030;-83
2022/01/15 11:48:48;;;;;;;14.82;8.45;;;3.60;99.90;;;;;;5035929;28;20363;-83
2022/01/15 11:51:14;;;;;;;16.15;8.38;;;3.60;99.90;;;;;;5017485;28;20115;-83
2022/01/15 11:53:54;;;;;;;16.65;8.35;;;3.70;99.90;;;;;;5015234;28;20025;-83
2022/01/15 11:56:25;;;;;;;20.03;8.23;;;3.80;99.90;;;;;;5014842;28;20025;-85
2022/01/15 11:58:53;;;;;;;15.93;8.55;;;3.70;99.90;;;;;;5037233;28;20093;-85
2022/01/15 12:01:42;;;;;;;14.77;8.50;;;3.90;99.90;;;;;;5009673;28;20018;-85
2022/01/15 12:04:28;;;;;;;14.93;8.38;;;3.70;99.90;;;;;;5028326;28;20557;-81
2022/01/15 12:07:06;;;;;;;16.45;8.60;;;3.70;99.90;;;;;;5020635;28;20022;-82
2022/01/15 12:09:34;;;;;;;14.65;8.45;;;3.70;99.90;;;;;;5018900;28;20054;-82
2022/01/15 12:12:02;;;;;;;13.82;7.60;;;3.80;99.90;;;;;;5018303;28;20036;-81
2022/01/15 12:14:46;;;;;;;16.50;9.05;;;3.90;99.90;;;;;;5016283;28;20545;-83
2022/01/15 12:17:47;;;;;;;15.60;7.72;;;3.90;99.90;;;;;;5032271;28;20033;-83
2022/01/15 12:20:21;;;;;;;15.60;8.07;;;3.90;99.90;;;;;;5016962;28;20030;-83
2022/01/15 12:22:47;;;;;;;14.52;8.05;;;3.80;99.90;;;;;;5037352;28;20026;-82
2022/01/15 12:25:28;;;;;;;18.75;8.95;;;3.80;99.90;;;;;;5031524;28;20033;-87
2022/01/15 12:28:13;;;;;;;15.52;8.50;;;4.10;99.90;;;;;;5013731;28;20341;-83
2022/01/15 12:30:42;;;;;;;14.60;8.45;;;2.30;99.90;;;;;;5021444;28;20475;-83
2022/01/15 12:33:12;;;;;;;14.95;8.23;;;3.70;99.90;;;;;;5019357;28;20026;-84
2022/01/15 12:35:39;;;;;;;14.57;8.32;;;3.50;99.90;;;;;;5033531;28;20034;-83
2022/01/15 12:38:10;;;;;;;14.50;7.25;;;5.20;99.90;;;;;;5018768;28;20547;-84
2022/01/15 12:40:40;;;;;;;16.90;8.80;;;3.70;99.90;;;;;;5034151;28;20106;-83
2022/01/15 12:43:19;;;;;;;16.25;8.88;;;3.70;99.90;;;;;;5020715;28;20037;-85
2022/01/15 12:45:48;;;;;;;15.27;8.63;;;3.90;99.90;;;;;;5030167;28;20545;-85
2022/01/15 12:48:20;;;;;;;14.98;8.35;;;3.90;99.90;;;;;;5020905;28;20037;-82
2022/01/15 12:50:48;;;;;;;18.20;8.95;;;4.70;99.90;;;;;;5036068;28;20029;-86
2022/01/15 12:53:15;;;;;;;14.05;7.82;;;3.70;99.90;;;;;;5012147;28;20037;-81
2022/01/15 12:55:42;;;;;;;12.90;7.82;;;4.90;99.90;;;;;;5020180;28;20026;-88
2022/01/15 12:58:09;;;;;;;16.98;9.32;;;3.70;99.90;;;;;;5018808;28;20538;-83
2022/01/15 13:00:37;;;;;;;14.65;8.10;;;4.00;99.90;;;;;;5021828;28;20048;-81
2022/01/15 13:03:08;;;;;;;15.77;8.05;;;4.50;99.90;;;;;;5021897;28;20026;-82
2022/01/15 13:05:42;;;;;;;15.98;8.77;;;3.50;99.90;;;;;;5022293;28;20026;-85
2022/01/15 13:08:13;;;;;;;13.40;8.52;;;4.90;99.90;;;;;;5020845;28;20061;-85
2022/01/15 13:10:53;;;;;;;15.70;8.40;;;3.90;99.90;;;;;;5024014;28;20378;-82
2022/01/15 13:13:38;;;;;;;13.75;7.97;;;3.40;99.90;;;;;;5020277;28;20113;-83
2022/01/15 13:16:18;;;;;;;16.75;9.00;;;5.00;99.90;;;;;;5017687;28;20046;-85
2022/01/15 13:18:55;;;;;;;13.95;8.20;;;3.50;99.90;;;;;;5005976;28;20026;-86
2022/01/15 13:21:26;;;;;;;16.95;8.65;;;3.50;99.90;;;;;;5009165;28;20022;-82
2022/01/15 13:23:58;;;;;;;14.75;8.27;;;3.60;99.90;;;;;;5018051;28;20273;-82
2022/01/15 13:26:27;;;;;;;15.80;8.68;;;3.60;99.90;;;;;;5016438;28;20113;-84
2022/01/15 13:28:58;;;;;;;15.85;8.55;;;3.60;99.90;;;;;;5040058;28;20025;-85
2022/01/15 13:31:28;;;;;;;15.80;8.48;;;3.60;99.90;;;;;;5024196;28;20052;-83
2022/01/15 13:33:54;;;;;;;15.13;9.05;;;3.50;99.90;;;;;;5022104;28;20026;-84
2022/01/15 13:36:20;;;;;;;14.80;8.77;;;5.30;99.90;;;;;;5014669;28;20092;-84